Hersey, Michigan
Current Conditions -  °F | °C
As of 2:54 PM on Monday 22 Dec 2014 (Local Time) from KRQB Reporting Station
Overcast Overcast  
Wind Chill: 26°   Ceiling: 6000
Heat Index: 34°   Visibility: 7mi
Dew Point: 29°   Wind: 10mph
Humidity: 81%   Direction: 100°E
Pressure: 29.89"   Gusts: 16mph
Location:  43.85°N, 85.44°W
Report Text: KRQB 221954Z AUTO 10009G14KT 7SM BKN060 OVC090 01/M02 A2989 RMK AO2 T00111019
Loading
Personal Weather Stations






























Interactive Weather Map New forecast layout! Learn more

10-Day Weather Forecast

Advertisements
Track Severe Weather on mobile